sim
Sign-in with your pilot id or email,
or register
Callsign
Passwort

Schedule Details

Flight Number: DLH1837
Departure: Fuerteventura Airport (GCFV) at 13:35
Arrival: Munich Airport (EDDM) at 18:05
Route: Lufthansa Passenger Schedule. Enter filed route here before submitting Pirep.

Weather Information
Getting current METAR information for GCFV 222300Z AUTO 36018KT 9999 NCD 21/17 Q1018
Getting current METAR information for EDDM 222250Z VRB01KT CAVOK 16/14 Q1024 NOSIG

Schedule Frequency

Route Map